Main page
METAR-TAF:

METAR-TAF

Airports :

Pearland Regional Airport

Houston / Pearland, Texas, United States

latitude: 29-31-16N, longitude: 095-14-31W, elevation: 43 ft

Current weather observation

The report was made 14 minutes ago, at 03:30 UTC
Wind 21 mph from the North/Northeast with gusts up to 35 mph
Temperature 48°F
Humidity 61%
Pressure 30.53 in. Hg
Visibility: 10 miles
Few clouds at a height of 2700 ft
Scattered clouds at a height of 3200 ft
Overcast at a height of 10000 ft

METAR: KLVJ 210330Z AUTO 02018G30KT 10SM FEW027 SCT032 OVC100 09/02 A3053 RMK AO2 PK WND 04030/0324 T00940017

Time: 21:44 (03:44 UTC)


TAF: missing

Weather observations and forecasts of more than 4000 airports (METAR and TAF reports).

The available stations are represented by yellow and red dots on the map.

Hover mouse over dot to see the name of the station.

Then click to see weather observations and forecasts.

To change the map : click on the green buttons with a black cross to zoom in, on the green button with a dash to zoom out, or on the green arrows for adjacent maps.


METAR-TAF: